createdAt,value
2022-09-20T00:00:38.075Z,5.47
2022-09-20T00:03:05.457Z,6.10
2022-09-20T00:05:32.742Z,11.38
2022-09-20T00:08:00.121Z,7.65
2022-09-20T00:10:27.625Z,10.02
2022-09-20T00:12:54.932Z,6.40
2022-09-20T00:15:22.751Z,12.90
2022-09-20T00:17:50.002Z,6.35
2022-09-20T00:20:17.310Z,8.68
2022-09-20T00:22:44.602Z,8.73
2022-09-20T00:25:11.829Z,6.97
2022-09-20T00:27:40.307Z,11.38
2022-09-20T00:30:07.924Z,5.97
2022-09-20T00:32:35.177Z,13.48
2022-09-20T00:35:08.707Z,9.02
2022-09-20T00:37:36.019Z,8.38
2022-09-20T00:40:03.324Z,10.77
2022-09-20T00:42:30.854Z,14.10
2022-09-20T00:44:58.117Z,9.93
2022-09-20T00:47:25.501Z,6.32
2022-09-20T00:49:52.690Z,15.23
2022-09-20T00:52:20.711Z,6.00
2022-09-20T00:54:48.025Z,9.48
2022-09-20T00:57:15.403Z,7.10
2022-09-20T00:59:42.744Z,10.85
2022-09-20T01:02:10.017Z,8.20
2022-09-20T01:04:39.188Z,9.07
2022-09-20T01:07:06.488Z,9.80
2022-09-20T01:09:33.689Z,8.93
2022-09-20T01:12:00.983Z,8.10
2022-09-20T01:14:28.288Z,10.55
2022-09-20T01:16:55.676Z,6.47
2022-09-20T01:19:22.969Z,6.18
2022-09-20T01:21:50.303Z,8.05
2022-09-20T01:24:17.537Z,15.65
2022-09-20T01:26:44.842Z,6.53
2022-09-20T01:29:12.157Z,6.95
2022-09-20T01:31:39.652Z,9.73
2022-09-20T01:34:07.800Z,9.93
2022-09-20T01:36:35.211Z,10.85
2022-09-20T01:39:02.589Z,20.23
2022-09-20T01:41:29.883Z,15.77
2022-09-20T01:43:57.174Z,9.15
2022-09-20T01:46:24.471Z,12.48
2022-09-20T01:48:51.845Z,12.18
2022-09-20T01:51:19.065Z,11.27
2022-09-20T01:53:46.285Z,11.43
2022-09-20T01:56:13.477Z,9.88
2022-09-20T01:58:40.823Z,10.90
2022-09-20T02:01:08.099Z,9.43
2022-09-20T02:03:35.328Z,12.45
2022-09-20T02:06:02.636Z,13.73
2022-09-20T02:08:29.858Z,18.17
2022-09-20T02:10:58.162Z,13.63
2022-09-20T02:13:25.570Z,15.75
2022-09-20T02:15:54.011Z,16.13
2022-09-20T02:18:21.388Z,20.30
2022-09-20T02:20:48.620Z,18.58
2022-09-20T02:23:15.881Z,12.48
2022-09-20T02:25:43.100Z,12.13
2022-09-20T02:28:10.430Z,13.23
2022-09-20T02:30:37.590Z,13.18
2022-09-20T02:33:05.044Z,13.23
2022-09-20T02:35:32.733Z,12.32
2022-09-20T02:37:59.974Z,14.18
2022-09-20T02:40:27.260Z,9.43
2022-09-20T02:42:54.581Z,10.77
2022-09-20T02:45:21.839Z,12.95
2022-09-20T02:47:49.314Z,14.82
2022-09-20T02:50:16.545Z,11.95
2022-09-20T02:52:43.839Z,9.93
2022-09-20T02:55:11.152Z,17.58
2022-09-20T02:57:38.433Z,16.63
2022-09-20T03:00:06.167Z,14.77
2022-09-20T03:02:33.497Z,10.13
2022-09-20T03:05:00.859Z,12.98
2022-09-20T03:07:28.120Z,13.52
2022-09-20T03:09:55.298Z,14.02
2022-09-20T03:12:22.626Z,15.77
2022-09-20T03:14:50.010Z,18.45
2022-09-20T03:17:17.353Z,19.23
2022-09-20T03:19:44.596Z,13.75
2022-09-20T03:22:12.200Z,11.63
2022-09-20T03:24:39.436Z,13.85
2022-09-20T03:27:10.911Z,15.18
2022-09-20T03:29:38.177Z,11.43
2022-09-20T03:32:05.468Z,12.07
2022-09-20T03:34:32.808Z,14.07
2022-09-20T03:37:01.202Z,13.63
2022-09-20T03:39:28.422Z,13.40
2022-09-20T03:41:55.722Z,12.70
2022-09-20T03:44:23.129Z,11.45
2022-09-20T03:46:50.378Z,15.55
2022-09-20T03:49:17.669Z,11.60
2022-09-20T03:51:44.877Z,10.85
2022-09-20T03:54:12.223Z,15.88
2022-09-20T03:56:39.426Z,10.52
2022-09-20T03:59:06.757Z,9.18
2022-09-20T04:01:34.284Z,12.77
2022-09-20T04:04:01.698Z,11.82
2022-09-20T04:06:29.514Z,10.07
2022-09-20T04:09:00.923Z,8.25
2022-09-20T04:11:30.190Z,10.88
2022-09-20T04:13:57.425Z,10.43
2022-09-20T04:16:24.845Z,10.20
2022-09-20T04:18:52.090Z,10.10
2022-09-20T04:21:23.896Z,8.32
2022-09-20T04:23:51.311Z,7.30
2022-09-20T04:26:18.623Z,8.85
2022-09-20T04:28:47.474Z,7.65
2022-09-20T04:31:14.763Z,11.95
2022-09-20T04:33:42.114Z,8.27
2022-09-20T04:36:28.203Z,9.05
2022-09-20T04:38:55.618Z,10.18
2022-09-20T04:41:22.880Z,11.32
2022-09-20T04:43:53.860Z,8.30
2022-09-20T04:46:21.189Z,8.88
2022-09-20T04:48:48.739Z,11.23
2022-09-20T04:51:16.278Z,8.23
2022-09-20T04:53:43.669Z,8.27
2022-09-20T04:56:11.849Z,9.70
2022-09-20T04:58:39.097Z,9.95
2022-09-20T05:01:06.414Z,10.32
2022-09-20T05:03:33.701Z,12.90
2022-09-20T05:06:03.285Z,11.88
2022-09-20T05:08:30.572Z,10.38
2022-09-20T05:10:58.058Z,10.68
2022-09-20T05:13:25.271Z,8.98
2022-09-20T05:15:52.977Z,9.32
2022-09-20T05:18:21.146Z,9.13
2022-09-20T05:20:48.465Z,8.55
2022-09-20T05:23:15.753Z,8.18
2022-09-20T05:25:43.165Z,9.45
2022-09-20T05:28:10.462Z,13.05
2022-09-20T05:30:38.146Z,9.95
2022-09-20T05:33:05.796Z,12.20
2022-09-20T05:35:33.066Z,12.23
2022-09-20T05:38:00.446Z,14.13
2022-09-20T05:40:30.880Z,10.63
2022-09-20T05:43:00.451Z,11.27
2022-09-20T05:45:27.734Z,18.08
2022-09-20T05:47:55.193Z,12.13
2022-09-20T05:50:23.955Z,11.75
2022-09-20T05:52:51.322Z,12.77
2022-09-20T05:55:18.533Z,11.57
2022-09-20T05:57:48.585Z,12.90
2022-09-20T06:00:16.132Z,12.50
2022-09-20T06:02:43.418Z,12.57
2022-09-20T06:05:10.992Z,12.88
2022-09-20T06:07:39.461Z,13.77
2022-09-20T06:10:09.225Z,12.65
2022-09-20T06:12:36.588Z,12.05
2022-09-20T06:15:04.868Z,15.02
2022-09-20T06:17:32.219Z,15.80
2022-09-20T06:19:59.480Z,13.60
2022-09-20T06:22:26.926Z,14.30
2022-09-20T06:24:54.218Z,14.38
2022-09-20T06:27:22.162Z,15.95
2022-09-20T06:29:52.351Z,21.50
2022-09-20T06:32:19.774Z,15.20
2022-09-20T06:34:47.116Z,12.93
2022-09-20T06:37:33.290Z,11.15
2022-09-20T06:40:19.526Z,13.30
2022-09-20T06:42:47.747Z,19.80
2022-09-20T06:45:14.919Z,13.88
2022-09-20T06:47:42.649Z,13.68
2022-09-20T06:50:09.950Z,14.45
2022-09-20T06:52:37.285Z,11.70
2022-09-20T06:55:07.610Z,14.82
2022-09-20T06:57:35.091Z,20.55
2022-09-20T07:00:02.639Z,13.43
2022-09-20T07:02:29.981Z,13.85
2022-09-20T07:04:57.836Z,10.48
2022-09-20T07:07:25.565Z,11.80
2022-09-20T07:09:52.806Z,12.38
2022-09-20T07:12:21.274Z,17.00
2022-09-20T07:14:50.616Z,13.90
2022-09-20T07:17:18.030Z,12.93
2022-09-20T07:19:45.273Z,15.18
2022-09-20T07:22:12.966Z,11.48
2022-09-20T07:24:40.808Z,14.43
2022-09-20T07:27:08.265Z,15.35
2022-09-20T07:29:35.554Z,12.80
2022-09-20T07:32:03.010Z,17.90
2022-09-20T07:34:30.422Z,12.68
2022-09-20T07:36:59.754Z,15.75
2022-09-20T07:39:28.636Z,32.03
2022-09-20T07:41:56.661Z,12.73
2022-09-20T07:44:28.118Z,9.57
2022-09-20T07:46:57.554Z,15.65
2022-09-20T07:49:25.429Z,11.25
2022-09-20T07:51:52.919Z,11.93
2022-09-20T07:54:20.186Z,10.23
2022-09-20T07:56:47.531Z,13.52
2022-09-20T07:59:14.913Z,12.48
2022-09-20T08:01:42.276Z,15.35
2022-09-20T08:04:09.580Z,15.30
2022-09-20T08:06:38.212Z,11.48
2022-09-20T08:09:10.190Z,15.52
2022-09-20T08:11:39.697Z,12.15
2022-09-20T08:14:08.868Z,12.98
2022-09-20T08:16:36.653Z,15.55
2022-09-20T08:19:03.977Z,14.35
2022-09-20T08:21:31.671Z,16.83
2022-09-20T08:23:58.997Z,18.05
2022-09-20T08:26:26.333Z,16.05
2022-09-20T08:28:53.790Z,15.13
2022-09-20T08:31:21.123Z,11.00
2022-09-20T08:33:50.862Z,12.50
2022-09-20T08:36:18.216Z,18.20
2022-09-20T08:41:32.884Z,10.95
2022-09-20T08:44:00.617Z,13.13
2022-09-20T08:46:28.867Z,18.02
2022-09-20T08:48:56.185Z,16.83
2022-09-20T08:51:23.464Z,14.57
2022-09-20T08:53:50.693Z,9.20
2022-09-20T08:56:17.958Z,9.68
2022-09-20T08:58:46.488Z,10.70
2022-09-20T09:01:13.903Z,11.75
2022-09-20T09:03:41.220Z,13.23
2022-09-20T09:06:12.449Z,12.13
2022-09-20T09:08:41.580Z,16.45
2022-09-20T09:11:09.633Z,10.63
2022-09-20T09:13:36.965Z,11.45
2022-09-20T09:16:04.253Z,5.15
2022-09-20T09:18:32.523Z,7.72
2022-09-20T09:21:00.715Z,1.98
2022-09-20T09:23:28.061Z,2.80
2022-09-20T09:25:55.308Z,5.60
2022-09-20T09:28:23.314Z,3.03
2022-09-20T09:30:50.731Z,5.00
2022-09-20T09:33:18.109Z,3.55
2022-09-20T09:35:45.474Z,3.05
2022-09-20T09:38:12.766Z,3.60
2022-09-20T09:40:40.098Z,1.75
2022-09-20T09:43:08.067Z,7.22
2022-09-20T09:45:44.470Z,2.42
2022-09-20T09:48:11.967Z,4.88
2022-09-20T09:50:39.744Z,3.47
2022-09-20T09:53:07.125Z,3.63
2022-09-20T09:55:34.359Z,3.65
2022-09-20T09:58:02.017Z,1.13
2022-09-20T10:00:29.392Z,1.70
2022-09-20T10:02:56.604Z,5.68
2022-09-20T10:05:23.943Z,3.55
2022-09-20T10:07:52.053Z,1.77
2022-09-20T10:10:19.245Z,2.33
2022-09-20T10:12:46.577Z,2.22
2022-09-20T10:15:14.556Z,6.38
2022-09-20T10:17:42.519Z,1.85
2022-09-20T10:20:09.709Z,1.77
2022-09-20T10:22:37.096Z,4.10
2022-09-20T10:25:04.293Z,2.90
2022-09-20T10:27:31.617Z,4.13
2022-09-20T10:29:59.270Z,0.90
2022-09-20T10:32:27.190Z,2.67
2022-09-20T10:34:54.407Z,1.63
2022-09-20T10:37:22.816Z,2.78
2022-09-20T10:39:49.979Z,1.38
2022-09-20T10:42:36.245Z,2.83
2022-09-20T10:45:03.551Z,1.80
2022-09-20T10:47:31.550Z,1.15
2022-09-20T10:49:59.001Z,6.00
2022-09-20T10:52:26.160Z,0.85
2022-09-20T10:54:53.379Z,1.00
2022-09-20T10:57:20.796Z,3.80
2022-09-20T10:59:48.277Z,0.65
2022-09-20T11:02:15.517Z,0.77
2022-09-20T11:04:42.784Z,0.82
2022-09-20T11:07:10.063Z,1.85
2022-09-20T11:09:38.055Z,0.60
2022-09-20T11:12:05.396Z,1.67
2022-09-20T11:14:33.498Z,1.40
2022-09-20T11:17:00.700Z,0.82
2022-09-20T11:19:28.070Z,0.98
2022-09-20T11:21:55.721Z,1.38
2022-09-20T11:24:23.042Z,1.60
2022-09-20T11:26:50.927Z,3.42
2022-09-20T11:29:18.827Z,2.67
2022-09-20T11:31:46.283Z,0.80
2022-09-20T11:34:13.601Z,1.90
2022-09-20T11:36:40.785Z,3.13
2022-09-20T11:39:08.186Z,1.90
2022-09-20T11:41:35.511Z,0.88
2022-09-20T11:44:04.173Z,2.13
2022-09-20T11:46:31.360Z,1.08
2022-09-20T11:48:58.760Z,0.75
2022-09-20T11:51:26.001Z,1.58
2022-09-20T11:53:53.490Z,3.22
2022-09-20T11:56:20.774Z,0.77
2022-09-20T11:58:48.998Z,1.83
2022-09-20T12:01:16.199Z,1.73
2022-09-20T12:03:43.625Z,2.35
2022-09-20T12:06:11.695Z,2.03
2022-09-20T12:08:39.354Z,1.48
2022-09-20T12:11:06.658Z,2.42
2022-09-20T12:13:34.758Z,2.30
2022-09-20T12:16:02.160Z,1.00
2022-09-20T12:18:32.013Z,1.90
2022-09-20T12:20:59.323Z,2.15
2022-09-20T12:23:27.723Z,2.40
2022-09-20T12:25:55.068Z,1.58
2022-09-20T12:28:23.160Z,1.35
2022-09-20T12:30:50.419Z,1.38
2022-09-20T12:33:17.769Z,1.23
2022-09-20T12:35:45.421Z,2.30
2022-09-20T12:38:12.870Z,3.53
2022-09-20T12:40:40.424Z,1.13
2022-09-20T12:43:07.729Z,1.48
2022-09-20T12:45:35.046Z,1.00
2022-09-20T12:48:02.411Z,1.35
2022-09-20T12:50:49.951Z,1.10
2022-09-20T12:53:17.237Z,1.10
2022-09-20T12:55:46.290Z,2.10
2022-09-20T12:58:14.295Z,2.20
2022-09-20T13:00:44.895Z,1.38
2022-09-20T13:03:12.762Z,1.45
2022-09-20T13:05:40.420Z,1.95
2022-09-20T13:08:07.866Z,3.20
2022-09-20T13:10:35.168Z,2.60
2022-09-20T13:13:02.592Z,1.85
2022-09-20T13:15:29.854Z,1.67
2022-09-20T13:17:57.349Z,2.47
2022-09-20T13:20:25.036Z,1.30
2022-09-20T13:22:53.133Z,4.55
2022-09-20T13:25:22.470Z,1.42
2022-09-20T13:27:50.988Z,0.98
2022-09-20T13:30:18.362Z,1.00
2022-09-20T13:32:45.758Z,5.65
2022-09-20T13:35:12.971Z,2.25
2022-09-20T13:37:43.080Z,0.82
2022-09-20T13:40:10.338Z,2.55
2022-09-20T13:42:37.603Z,1.70
2022-09-20T13:45:06.083Z,2.63
2022-09-20T13:47:34.297Z,2.47
2022-09-20T13:50:02.761Z,2.15
2022-09-20T13:52:30.783Z,2.08
2022-09-20T13:54:58.198Z,2.33
2022-09-20T13:57:25.587Z,4.43
2022-09-20T13:59:54.384Z,7.78
2022-09-20T14:02:21.836Z,3.92
2022-09-20T14:04:50.589Z,5.60
2022-09-20T14:07:18.062Z,2.63
2022-09-20T14:09:46.085Z,2.70
2022-09-20T14:12:13.819Z,2.15
2022-09-20T14:14:41.250Z,2.63
2022-09-20T14:17:09.753Z,2.90
2022-09-20T14:19:37.590Z,1.55
2022-09-20T14:22:04.947Z,4.68
2022-09-20T14:24:33.075Z,3.35
2022-09-20T14:27:00.614Z,2.50
2022-09-20T14:29:27.957Z,1.45
2022-09-20T14:31:55.230Z,5.05
2022-09-20T14:34:22.746Z,1.65
2022-09-20T14:36:50.351Z,3.15
2022-09-20T14:39:18.219Z,5.40
2022-09-20T14:41:46.870Z,2.50
2022-09-20T14:44:14.342Z,5.32
2022-09-20T14:46:41.680Z,4.22
2022-09-20T14:49:08.917Z,2.33
2022-09-20T14:51:36.370Z,2.58
2022-09-20T14:54:03.741Z,1.95
2022-09-20T14:56:30.998Z,4.35
2022-09-20T14:59:02.715Z,1.98
2022-09-20T15:01:30.127Z,4.10
2022-09-20T15:03:57.483Z,4.97
2022-09-20T15:06:24.823Z,4.50
2022-09-20T15:08:52.108Z,2.03
2022-09-20T15:11:19.745Z,2.58
2022-09-20T15:13:50.161Z,3.10
2022-09-20T15:16:17.728Z,1.60
2022-09-20T15:18:45.074Z,2.35
2022-09-20T15:21:12.956Z,4.85
2022-09-20T15:23:41.026Z,4.72
2022-09-20T15:26:09.138Z,1.95
2022-09-20T15:28:36.464Z,3.17
2022-09-20T15:31:04.107Z,2.72
2022-09-20T15:33:32.133Z,4.40
2022-09-20T15:35:59.664Z,3.42
2022-09-20T15:38:27.314Z,4.95
2022-09-20T15:40:54.686Z,3.58
2022-09-20T15:43:24.196Z,1.60
2022-09-20T15:45:58.665Z,3.83
2022-09-20T15:48:26.244Z,2.00
2022-09-20T15:50:53.721Z,3.05
2022-09-20T15:53:22.280Z,4.22
2022-09-20T15:55:49.568Z,3.13
2022-09-20T15:58:18.188Z,3.70
2022-09-20T16:00:46.067Z,2.17
2022-09-20T16:03:13.533Z,2.28
2022-09-20T16:05:41.040Z,3.15
2022-09-20T16:08:08.436Z,1.77
2022-09-20T16:10:38.598Z,1.95
2022-09-20T16:13:05.957Z,2.40
2022-09-20T16:15:33.272Z,1.50
2022-09-20T16:18:19.428Z,3.97
2022-09-20T16:20:46.749Z,2.55
2022-09-20T16:23:13.978Z,4.75
2022-09-20T16:25:41.461Z,2.75
2022-09-20T16:28:08.788Z,2.03
2022-09-20T16:30:36.249Z,3.28
2022-09-20T16:33:05.711Z,2.25
2022-09-20T16:35:36.463Z,2.88
2022-09-20T16:38:03.871Z,2.92
2022-09-20T16:40:31.588Z,2.20
2022-09-20T16:42:59.093Z,2.33
2022-09-20T16:45:27.565Z,5.00
2022-09-20T16:47:58.148Z,2.50
2022-09-20T16:50:25.534Z,4.10
2022-09-20T16:52:53.018Z,2.35
2022-09-20T16:55:20.904Z,4.43
2022-09-20T16:57:48.149Z,4.35
2022-09-20T17:00:16.878Z,3.10
2022-09-20T17:02:47.743Z,5.15
2022-09-20T17:05:15.409Z,2.78
2022-09-20T17:07:43.038Z,3.10
2022-09-20T17:10:10.408Z,3.38
2022-09-20T17:12:46.664Z,3.92
2022-09-20T17:15:14.126Z,3.67
2022-09-20T17:17:42.094Z,5.15
2022-09-20T17:20:09.351Z,3.55
2022-09-20T17:22:37.085Z,5.93
2022-09-20T17:25:04.958Z,2.05
2022-09-20T17:27:32.145Z,4.32
2022-09-20T17:29:59.460Z,4.28
2022-09-20T17:32:26.999Z,4.07
2022-09-20T17:34:54.443Z,3.08
2022-09-20T17:37:22.942Z,5.32
2022-09-20T17:39:50.410Z,3.75
2022-09-20T17:42:18.188Z,2.67
2022-09-20T17:44:45.470Z,3.30
2022-09-20T17:47:13.436Z,3.22
2022-09-20T17:49:40.780Z,3.50
2022-09-20T17:52:08.466Z,2.75
2022-09-20T17:54:35.797Z,5.03
2022-09-20T17:57:02.963Z,4.72
2022-09-20T17:59:30.356Z,4.07
2022-09-20T18:01:57.558Z,3.45
2022-09-20T18:04:25.111Z,4.18
2022-09-20T18:06:52.610Z,2.40
2022-09-20T18:09:19.902Z,3.72
2022-09-20T18:11:49.277Z,15.95
2022-09-20T18:14:16.919Z,3.33
2022-09-20T18:16:44.326Z,11.25
2022-09-20T18:19:11.676Z,5.32
2022-09-20T18:21:38.924Z,3.00
2022-09-20T18:24:06.221Z,4.15
2022-09-20T18:26:33.700Z,4.93
2022-09-20T18:29:04.784Z,3.17
2022-09-20T18:31:38.464Z,8.27
2022-09-20T18:34:05.977Z,3.47
2022-09-20T18:36:33.425Z,3.15
2022-09-20T18:39:02.045Z,3.38
2022-09-20T18:41:30.634Z,3.55
2022-09-20T18:43:57.976Z,11.30
2022-09-20T18:46:25.392Z,3.03
2022-09-20T18:48:52.783Z,2.97
2022-09-20T18:51:20.070Z,4.20
2022-09-20T18:53:47.830Z,6.28
2022-09-20T18:56:15.168Z,3.72
2022-09-20T18:58:44.692Z,4.05
2022-09-20T19:01:12.063Z,4.68
2022-09-20T19:03:39.474Z,4.65
2022-09-20T19:06:06.813Z,8.40
2022-09-20T19:08:34.516Z,10.07
2022-09-20T19:11:01.791Z,5.65
2022-09-20T19:13:29.068Z,5.15
2022-09-20T19:15:56.538Z,6.70
2022-09-20T19:18:24.278Z,5.10
2022-09-20T19:20:51.464Z,8.00
2022-09-20T19:23:18.793Z,5.88
2022-09-20T19:25:46.088Z,11.18
2022-09-20T19:28:13.338Z,13.55
2022-09-20T19:30:40.777Z,14.98
2022-09-20T19:33:08.383Z,18.85
2022-09-20T19:35:35.751Z,18.75
2022-09-20T19:38:03.536Z,17.48
2022-09-20T19:40:33.024Z,18.35
2022-09-20T19:43:01.081Z,15.13
2022-09-20T19:45:32.212Z,18.35
2022-09-20T19:48:01.589Z,18.98
2022-09-20T19:50:29.906Z,16.17
2022-09-20T19:52:57.197Z,16.88
2022-09-20T19:55:24.512Z,12.98
2022-09-20T19:57:52.069Z,16.85
2022-09-20T20:00:19.562Z,12.63
2022-09-20T20:02:47.104Z,9.82
2022-09-20T20:05:14.511Z,12.82
2022-09-20T20:07:42.048Z,7.18
2022-09-20T20:10:09.620Z,12.60
2022-09-20T20:12:37.105Z,8.93
2022-09-20T20:15:04.497Z,6.93
2022-09-20T20:17:31.791Z,15.23
2022-09-20T20:19:59.460Z,6.20
2022-09-20T20:22:28.598Z,9.98
2022-09-20T20:24:56.659Z,7.55
2022-09-20T20:27:24.170Z,8.93
2022-09-20T20:29:51.577Z,8.85
2022-09-20T20:32:18.848Z,7.15
2022-09-20T20:34:47.054Z,10.32
2022-09-20T20:37:14.423Z,7.85
2022-09-20T20:39:41.715Z,9.15
2022-09-20T20:42:10.114Z,7.25
2022-09-20T20:44:37.887Z,9.30
2022-09-20T20:47:05.614Z,10.57
2022-09-20T20:49:32.916Z,8.15
2022-09-20T20:52:04.740Z,10.27
2022-09-20T20:54:32.354Z,10.43
2022-09-20T20:56:59.661Z,7.97
2022-09-20T20:59:27.606Z,13.82
2022-09-20T21:01:54.936Z,8.93
2022-09-20T21:04:23.249Z,8.60
2022-09-20T21:06:50.810Z,13.05
2022-09-20T21:09:18.915Z,9.60
2022-09-20T21:11:48.692Z,15.80
2022-09-20T21:14:16.897Z,10.43
2022-09-20T21:16:46.349Z,10.02
2022-09-20T21:19:15.785Z,10.02
2022-09-20T21:21:46.354Z,9.90
2022-09-20T21:24:13.648Z,6.78
2022-09-20T21:26:41.338Z,11.18
2022-09-20T21:29:08.619Z,13.63
2022-09-20T21:31:36.204Z,11.40
2022-09-20T21:34:03.619Z,8.93
2022-09-20T21:36:31.265Z,10.90
2022-09-20T21:38:58.586Z,13.10
2022-09-20T21:41:26.059Z,9.10
2022-09-20T21:43:53.885Z,12.25
2022-09-20T21:46:21.323Z,11.20
2022-09-20T21:48:48.815Z,11.25
2022-09-20T21:51:18.288Z,12.68
2022-09-20T21:53:45.675Z,14.60
2022-09-20T21:56:13.754Z,10.00
2022-09-20T21:58:41.317Z,10.23
2022-09-20T22:01:11.827Z,10.20
2022-09-20T22:03:39.786Z,12.13
2022-09-20T22:06:09.009Z,12.32
2022-09-20T22:08:37.612Z,12.48
2022-09-20T22:11:05.059Z,12.90
2022-09-20T22:13:32.700Z,11.57
2022-09-20T22:16:00.058Z,11.00
2022-09-20T22:18:28.206Z,12.40
2022-09-20T22:20:55.656Z,11.55
2022-09-20T22:23:23.277Z,14.93
2022-09-20T22:25:50.916Z,12.45
2022-09-20T22:28:18.490Z,12.32
2022-09-20T22:30:45.878Z,10.30
2022-09-20T22:33:13.651Z,11.82
2022-09-20T22:35:41.089Z,15.98
2022-09-20T22:38:08.422Z,16.30
2022-09-20T22:40:36.995Z,12.35
2022-09-20T22:43:04.333Z,9.98
2022-09-20T22:45:32.310Z,11.90
2022-09-20T22:47:59.542Z,11.73
2022-09-20T22:50:27.907Z,11.98
2022-09-20T22:52:55.135Z,12.13
2022-09-20T22:55:24.853Z,10.95
2022-09-20T22:57:52.802Z,9.80
2022-09-20T23:00:21.085Z,10.48
2022-09-20T23:02:48.552Z,15.43
2022-09-20T23:05:17.500Z,13.75
2022-09-20T23:07:45.023Z,9.82
2022-09-20T23:10:12.235Z,12.23
2022-09-20T23:12:39.986Z,12.23
2022-09-20T23:15:07.319Z,10.90
2022-09-20T23:17:34.879Z,12.43
2022-09-20T23:20:02.105Z,11.65
2022-09-20T23:22:29.334Z,16.02
2022-09-20T23:24:56.886Z,9.98
2022-09-20T23:27:24.425Z,12.27
2022-09-20T23:29:51.652Z,14.20
2022-09-20T23:32:21.159Z,15.23
2022-09-20T23:34:48.800Z,17.60
2022-09-20T23:37:15.990Z,13.50
2022-09-20T23:39:43.751Z,12.60
2022-09-20T23:42:11.069Z,11.82
2022-09-20T23:44:40.225Z,10.02
2022-09-20T23:47:07.586Z,12.48
2022-09-20T23:49:36.786Z,13.10
2022-09-20T23:52:04.171Z,11.07
2022-09-20T23:54:31.716Z,15.00
2022-09-20T23:56:59.024Z,10.60
2022-09-20T23:59:26.356Z,12.60
